sensor_id;sensor_type;location;lat;lon;timestamp;temperature;humidity
7317;DHT22;3699;51.462;6.696;2022-08-19T00:00:16;19.50;99.90
7317;DHT22;3699;51.462;6.696;2022-08-19T00:02:43;19.50;99.90
7317;DHT22;3699;51.462;6.696;2022-08-19T00:05:13;19.50;99.90
7317;DHT22;3699;51.462;6.696;2022-08-19T00:07:41;19.40;99.90
7317;DHT22;3699;51.462;6.696;2022-08-19T00:10:11;19.40;99.90
7317;DHT22;3699;51.462;6.696;2022-08-19T00:12:39;19.40;99.90
7317;DHT22;3699;51.462;6.696;2022-08-19T00:15:10;19.40;99.90
7317;DHT22;3699;51.462;6.696;2022-08-19T00:20:06;19.30;99.90
7317;DHT22;3699;51.462;6.696;2022-08-19T00:22:34;19.40;99.90
7317;DHT22;3699;51.462;6.696;2022-08-19T00:25:01;19.30;99.90
7317;DHT22;3699;51.462;6.696;2022-08-19T00:27:28;19.30;99.90
7317;DHT22;3699;51.462;6.696;2022-08-19T00:29:55;19.30;99.90
7317;DHT22;3699;51.462;6.696;2022-08-19T00:32:21;19.30;99.90
7317;DHT22;3699;51.462;6.696;2022-08-19T00:34:48;19.20;99.90
7317;DHT22;3699;51.462;6.696;2022-08-19T00:37:17;19.20;99.90
7317;DHT22;3699;51.462;6.696;2022-08-19T00:39:45;19.20;99.90
7317;DHT22;3699;51.462;6.696;2022-08-19T00:42:12;19.20;99.90
7317;DHT22;3699;51.462;6.696;2022-08-19T00:44:41;19.10;99.90
7317;DHT22;3699;51.462;6.696;2022-08-19T00:47:08;19.10;99.90
7317;DHT22;3699;51.462;6.696;2022-08-19T00:49:40;19.10;99.90
7317;DHT22;3699;51.462;6.696;2022-08-19T00:52:12;19.10;99.90
7317;DHT22;3699;51.462;6.696;2022-08-19T00:54:40;19.10;99.90
7317;DHT22;3699;51.462;6.696;2022-08-19T00:57:12;19.00;99.90
7317;DHT22;3699;51.462;6.696;2022-08-19T00:59:43;19.00;99.90
7317;DHT22;3699;51.462;6.696;2022-08-19T01:02:11;19.00;99.90
7317;DHT22;3699;51.462;6.696;2022-08-19T01:04:38;19.00;99.90
7317;DHT22;3699;51.462;6.696;2022-08-19T01:07:05;19.00;99.90
7317;DHT22;3699;51.462;6.696;2022-08-19T01:09:32;18.90;99.90
7317;DHT22;3699;51.462;6.696;2022-08-19T01:12:00;19.00;99.90
7317;DHT22;3699;51.462;6.696;2022-08-19T01:14:29;18.90;99.90
7317;DHT22;3699;51.462;6.696;2022-08-19T01:16:56;18.90;99.90
7317;DHT22;3699;51.462;6.696;2022-08-19T01:19:28;18.90;99.90
7317;DHT22;3699;51.462;6.696;2022-08-19T01:22:01;18.90;99.90
7317;DHT22;3699;51.462;6.696;2022-08-19T01:24:30;18.80;99.90
7317;DHT22;3699;51.462;6.696;2022-08-19T01:26:57;18.80;99.90
7317;DHT22;3699;51.462;6.696;2022-08-19T01:29:24;18.80;99.90
7317;DHT22;3699;51.462;6.696;2022-08-19T01:31:51;18.80;99.90
7317;DHT22;3699;51.462;6.696;2022-08-19T01:34:19;18.70;99.90
7317;DHT22;3699;51.462;6.696;2022-08-19T01:36:47;18.80;99.90
7317;DHT22;3699;51.462;6.696;2022-08-19T01:39:17;18.80;99.90
7317;DHT22;3699;51.462;6.696;2022-08-19T01:41:46;18.70;99.90
7317;DHT22;3699;51.462;6.696;2022-08-19T01:44:13;18.70;99.90
7317;DHT22;3699;51.462;6.696;2022-08-19T01:46:41;18.70;99.90
7317;DHT22;3699;51.462;6.696;2022-08-19T01:49:09;18.70;99.90
7317;DHT22;3699;51.462;6.696;2022-08-19T01:51:36;18.70;99.90
7317;DHT22;3699;51.462;6.696;2022-08-19T01:54:03;18.70;99.90
7317;DHT22;3699;51.462;6.696;2022-08-19T01:56:30;18.60;99.90
7317;DHT22;3699;51.462;6.696;2022-08-19T01:59:03;18.60;99.90
7317;DHT22;3699;51.462;6.696;2022-08-19T02:01:31;18.60;99.90
7317;DHT22;3699;51.462;6.696;2022-08-19T02:04:00;18.60;99.90
7317;DHT22;3699;51.462;6.696;2022-08-19T02:06:27;18.60;99.90
7317;DHT22;3699;51.462;6.696;2022-08-19T02:08:54;18.60;99.90
7317;DHT22;3699;51.462;6.696;2022-08-19T02:11:23;18.60;99.90
7317;DHT22;3699;51.462;6.696;2022-08-19T02:13:52;18.50;99.90
7317;DHT22;3699;51.462;6.696;2022-08-19T02:16:21;18.50;99.90
7317;DHT22;3699;51.462;6.696;2022-08-19T02:18:48;18.50;99.90
7317;DHT22;3699;51.462;6.696;2022-08-19T02:21:16;18.50;99.90
7317;DHT22;3699;51.462;6.696;2022-08-19T02:23:43;18.50;99.90
7317;DHT22;3699;51.462;6.696;2022-08-19T02:26:11;18.40;99.90
7317;DHT22;3699;51.462;6.696;2022-08-19T02:28:38;18.40;99.90
7317;DHT22;3699;51.462;6.696;2022-08-19T02:31:09;18.40;99.90
7317;DHT22;3699;51.462;6.696;2022-08-19T02:33:37;18.40;99.90
7317;DHT22;3699;51.462;6.696;2022-08-19T02:36:05;17.70;99.90
7317;DHT22;3699;51.462;6.696;2022-08-19T02:38:32;18.50;99.90
7317;DHT22;3699;51.462;6.696;2022-08-19T02:41:00;18.50;99.90
7317;DHT22;3699;51.462;6.696;2022-08-19T02:43:29;18.50;99.90
7317;DHT22;3699;51.462;6.696;2022-08-19T02:45:56;18.50;99.90
7317;DHT22;3699;51.462;6.696;2022-08-19T02:48:24;18.50;99.90
7317;DHT22;3699;51.462;6.696;2022-08-19T02:50:53;18.50;99.90
7317;DHT22;3699;51.462;6.696;2022-08-19T02:53:22;18.50;99.90
7317;DHT22;3699;51.462;6.696;2022-08-19T02:55:49;18.50;99.90
7317;DHT22;3699;51.462;6.696;2022-08-19T02:58:17;18.50;99.90
7317;DHT22;3699;51.462;6.696;2022-08-19T03:00:46;18.50;99.90
7317;DHT22;3699;51.462;6.696;2022-08-19T03:03:14;18.50;99.90
7317;DHT22;3699;51.462;6.696;2022-08-19T03:05:41;18.50;99.90
7317;DHT22;3699;51.462;6.696;2022-08-19T03:08:10;18.50;99.90
7317;DHT22;3699;51.462;6.696;2022-08-19T03:10:42;18.50;99.90
7317;DHT22;3699;51.462;6.696;2022-08-19T03:13:11;18.50;99.90
7317;DHT22;3699;51.462;6.696;2022-08-19T03:15:43;18.50;99.90
7317;DHT22;3699;51.462;6.696;2022-08-19T03:18:11;18.50;99.90
7317;DHT22;3699;51.462;6.696;2022-08-19T03:20:42;18.50;99.90
7317;DHT22;3699;51.462;6.696;2022-08-19T03:23:11;18.50;99.90
7317;DHT22;3699;51.462;6.696;2022-08-19T03:25:40;18.50;99.90
7317;DHT22;3699;51.462;6.696;2022-08-19T03:28:07;18.50;99.90
7317;DHT22;3699;51.462;6.696;2022-08-19T03:30:34;18.60;99.90
7317;DHT22;3699;51.462;6.696;2022-08-19T03:33:01;18.60;99.90
7317;DHT22;3699;51.462;6.696;2022-08-19T03:35:28;18.60;99.90
7317;DHT22;3699;51.462;6.696;2022-08-19T03:37:55;18.60;99.90
7317;DHT22;3699;51.462;6.696;2022-08-19T03:40:23;18.60;99.90
7317;DHT22;3699;51.462;6.696;2022-08-19T03:42:50;18.60;99.90
7317;DHT22;3699;51.462;6.696;2022-08-19T03:45:17;18.60;99.90
7317;DHT22;3699;51.462;6.696;2022-08-19T03:47:45;18.60;99.90
7317;DHT22;3699;51.462;6.696;2022-08-19T03:50:12;18.60;99.90
7317;DHT22;3699;51.462;6.696;2022-08-19T03:52:39;18.60;99.90
7317;DHT22;3699;51.462;6.696;2022-08-19T03:55:06;18.60;99.90
7317;DHT22;3699;51.462;6.696;2022-08-19T03:57:35;18.60;99.90
7317;DHT22;3699;51.462;6.696;2022-08-19T04:00:04;18.40;99.90
7317;DHT22;3699;51.462;6.696;2022-08-19T04:02:32;18.50;99.90
7317;DHT22;3699;51.462;6.696;2022-08-19T04:04:58;18.50;99.90
7317;DHT22;3699;51.462;6.696;2022-08-19T04:07:25;18.50;99.90
7317;DHT22;3699;51.462;6.696;2022-08-19T04:09:52;18.50;99.90
7317;DHT22;3699;51.462;6.696;2022-08-19T04:12:19;18.50;99.90
7317;DHT22;3699;51.462;6.696;2022-08-19T04:14:47;18.40;99.90
7317;DHT22;3699;51.462;6.696;2022-08-19T04:17:14;18.40;99.90
7317;DHT22;3699;51.462;6.696;2022-08-19T04:19:41;18.40;99.90
7317;DHT22;3699;51.462;6.696;2022-08-19T04:22:08;18.30;99.90
7317;DHT22;3699;51.462;6.696;2022-08-19T04:24:36;18.30;99.90
7317;DHT22;3699;51.462;6.696;2022-08-19T04:27:04;18.30;99.90
7317;DHT22;3699;51.462;6.696;2022-08-19T04:29:32;18.30;99.90
7317;DHT22;3699;51.462;6.696;2022-08-19T04:32:00;17.40;99.90
7317;DHT22;3699;51.462;6.696;2022-08-19T04:34:28;18.30;99.90
7317;DHT22;3699;51.462;6.696;2022-08-19T04:36:56;18.30;99.90
7317;DHT22;3699;51.462;6.696;2022-08-19T04:39:26;18.20;99.90
7317;DHT22;3699;51.462;6.696;2022-08-19T04:42:13;18.20;99.90
7317;DHT22;3699;51.462;6.696;2022-08-19T04:44:57;18.20;99.90
7317;DHT22;3699;51.462;6.696;2022-08-19T04:47:26;18.20;99.90
7317;DHT22;3699;51.462;6.696;2022-08-19T04:49:53;18.20;99.90
7317;DHT22;3699;51.462;6.696;2022-08-19T04:52:19;18.20;99.90
7317;DHT22;3699;51.462;6.696;2022-08-19T04:54:46;18.20;99.90
7317;DHT22;3699;51.462;6.696;2022-08-19T04:57:13;18.30;99.90
7317;DHT22;3699;51.462;6.696;2022-08-19T04:59:40;18.30;99.90
7317;DHT22;3699;51.462;6.696;2022-08-19T05:02:08;18.30;99.90
7317;DHT22;3699;51.462;6.696;2022-08-19T05:04:36;18.30;99.90
7317;DHT22;3699;51.462;6.696;2022-08-19T05:07:04;18.40;99.90
7317;DHT22;3699;51.462;6.696;2022-08-19T05:09:31;18.40;99.90
7317;DHT22;3699;51.462;6.696;2022-08-19T05:11:58;18.50;99.90
7317;DHT22;3699;51.462;6.696;2022-08-19T05:14:25;18.50;99.90
7317;DHT22;3699;51.462;6.696;2022-08-19T05:16:52;18.60;99.90
7317;DHT22;3699;51.462;6.696;2022-08-19T05:19:19;18.70;99.90
7317;DHT22;3699;51.462;6.696;2022-08-19T05:22:10;18.80;99.90
7317;DHT22;3699;51.462;6.696;2022-08-19T05:24:54;18.90;99.90
7317;DHT22;3699;51.462;6.696;2022-08-19T05:27:21;19.00;99.90
7317;DHT22;3699;51.462;6.696;2022-08-19T05:29:48;19.10;99.90
7317;DHT22;3699;51.462;6.696;2022-08-19T05:32:14;19.10;99.90
7317;DHT22;3699;51.462;6.696;2022-08-19T05:34:41;19.30;99.90
7317;DHT22;3699;51.462;6.696;2022-08-19T05:37:09;19.40;99.90
7317;DHT22;3699;51.462;6.696;2022-08-19T05:39:37;19.60;99.90
7317;DHT22;3699;51.462;6.696;2022-08-19T05:42:07;19.90;99.90
7317;DHT22;3699;51.462;6.696;2022-08-19T05:44:37;20.10;99.90
7317;DHT22;3699;51.462;6.696;2022-08-19T05:47:06;20.40;99.90
7317;DHT22;3699;51.462;6.696;2022-08-19T05:49:34;20.70;99.90
7317;DHT22;3699;51.462;6.696;2022-08-19T05:52:03;21.00;99.90
7317;DHT22;3699;51.462;6.696;2022-08-19T05:54:32;21.30;99.90
7317;DHT22;3699;51.462;6.696;2022-08-19T05:57:00;21.50;99.90
7317;DHT22;3699;51.462;6.696;2022-08-19T05:59:27;21.70;99.90
7317;DHT22;3699;51.462;6.696;2022-08-19T06:01:54;21.90;99.90
7317;DHT22;3699;51.462;6.696;2022-08-19T06:04:23;22.10;99.90
7317;DHT22;3699;51.462;6.696;2022-08-19T06:06:52;22.40;99.90
7317;DHT22;3699;51.462;6.696;2022-08-19T06:09:20;22.70;99.90
7317;DHT22;3699;51.462;6.696;2022-08-19T06:11:49;23.00;99.90
7317;DHT22;3699;51.462;6.696;2022-08-19T06:14:22;23.60;99.90
7317;DHT22;3699;51.462;6.696;2022-08-19T06:16:50;23.70;99.90
7317;DHT22;3699;51.462;6.696;2022-08-19T06:19:19;23.90;99.90
7317;DHT22;3699;51.462;6.696;2022-08-19T06:21:48;24.10;99.90
7317;DHT22;3699;51.462;6.696;2022-08-19T06:24:17;24.40;99.90
7317;DHT22;3699;51.462;6.696;2022-08-19T06:26:47;24.50;99.90
7317;DHT22;3699;51.462;6.696;2022-08-19T06:29:16;24.60;99.90
7317;DHT22;3699;51.462;6.696;2022-08-19T06:31:46;24.70;99.90
7317;DHT22;3699;51.462;6.696;2022-08-19T06:34:15;24.90;99.90
7317;DHT22;3699;51.462;6.696;2022-08-19T06:36:44;25.10;99.90
7317;DHT22;3699;51.462;6.696;2022-08-19T06:39:13;25.30;99.90
7317;DHT22;3699;51.462;6.696;2022-08-19T06:41:43;25.40;99.90
7317;DHT22;3699;51.462;6.696;2022-08-19T06:44:11;25.70;99.90
7317;DHT22;3699;51.462;6.696;2022-08-19T06:46:41;25.90;99.90
7317;DHT22;3699;51.462;6.696;2022-08-19T06:49:09;26.10;99.90
7317;DHT22;3699;51.462;6.696;2022-08-19T06:51:39;26.20;99.90
7317;DHT22;3699;51.462;6.696;2022-08-19T06:54:05;26.30;99.90
7317;DHT22;3699;51.462;6.696;2022-08-19T06:56:32;26.10;99.90
7317;DHT22;3699;51.462;6.696;2022-08-19T06:59:00;26.10;99.90
7317;DHT22;3699;51.462;6.696;2022-08-19T07:01:27;26.10;99.90
7317;DHT22;3699;51.462;6.696;2022-08-19T07:03:55;26.20;99.90
7317;DHT22;3699;51.462;6.696;2022-08-19T07:06:23;26.40;99.90
7317;DHT22;3699;51.462;6.696;2022-08-19T07:08:49;26.70;99.90
7317;DHT22;3699;51.462;6.696;2022-08-19T07:11:18;27.10;99.90
7317;DHT22;3699;51.462;6.696;2022-08-19T07:13:46;27.10;99.90
7317;DHT22;3699;51.462;6.696;2022-08-19T07:16:17;27.20;99.90
7317;DHT22;3699;51.462;6.696;2022-08-19T07:18:44;27.40;99.90
7317;DHT22;3699;51.462;6.696;2022-08-19T07:21:15;27.50;99.90
7317;DHT22;3699;51.462;6.696;2022-08-19T07:23:43;27.70;99.90
7317;DHT22;3699;51.462;6.696;2022-08-19T07:26:13;27.70;99.90
7317;DHT22;3699;51.462;6.696;2022-08-19T07:28:40;27.70;99.90
7317;DHT22;3699;51.462;6.696;2022-08-19T07:31:10;27.80;99.90
7317;DHT22;3699;51.462;6.696;2022-08-19T07:33:37;27.80;99.90
7317;DHT22;3699;51.462;6.696;2022-08-19T07:36:05;27.80;99.90
7317;DHT22;3699;51.462;6.696;2022-08-19T07:38:34;27.90;99.90
7317;DHT22;3699;51.462;6.696;2022-08-19T07:41:01;28.00;99.90
7317;DHT22;3699;51.462;6.696;2022-08-19T07:43:28;27.90;99.90
7317;DHT22;3699;51.462;6.696;2022-08-19T07:45:55;28.00;99.90
7317;DHT22;3699;51.462;6.696;2022-08-19T07:48:23;28.10;99.90
7317;DHT22;3699;51.462;6.696;2022-08-19T07:50:51;28.10;99.90
7317;DHT22;3699;51.462;6.696;2022-08-19T07:53:18;28.00;99.90
7317;DHT22;3699;51.462;6.696;2022-08-19T07:55:46;28.00;99.90
7317;DHT22;3699;51.462;6.696;2022-08-19T07:58:16;27.80;99.90
7317;DHT22;3699;51.462;6.696;2022-08-19T08:00:43;27.80;99.90
7317;DHT22;3699;51.462;6.696;2022-08-19T08:03:11;27.70;99.90
7317;DHT22;3699;51.462;6.696;2022-08-19T08:05:38;27.80;99.90
7317;DHT22;3699;51.462;6.696;2022-08-19T08:08:23;27.90;99.90
7317;DHT22;3699;51.462;6.696;2022-08-19T08:11:06;28.10;99.90
7317;DHT22;3699;51.462;6.696;2022-08-19T08:13:32;28.30;99.90
7317;DHT22;3699;51.462;6.696;2022-08-19T08:16:01;28.50;99.90
7317;DHT22;3699;51.462;6.696;2022-08-19T08:18:28;28.60;99.90
7317;DHT22;3699;51.462;6.696;2022-08-19T08:20:56;28.80;99.90
7317;DHT22;3699;51.462;6.696;2022-08-19T08:23:24;29.00;99.90
7317;DHT22;3699;51.462;6.696;2022-08-19T08:25:52;28.80;99.90
7317;DHT22;3699;51.462;6.696;2022-08-19T08:28:23;28.80;99.90
7317;DHT22;3699;51.462;6.696;2022-08-19T08:30:50;28.50;99.90
7317;DHT22;3699;51.462;6.696;2022-08-19T08:33:18;28.30;99.90
7317;DHT22;3699;51.462;6.696;2022-08-19T08:35:47;28.30;99.90
7317;DHT22;3699;51.462;6.696;2022-08-19T08:38:14;28.30;99.90
7317;DHT22;3699;51.462;6.696;2022-08-19T08:40:44;28.30;99.90
7317;DHT22;3699;51.462;6.696;2022-08-19T08:43:20;28.40;99.90
7317;DHT22;3699;51.462;6.696;2022-08-19T08:45:55;28.80;99.90
7317;DHT22;3699;51.462;6.696;2022-08-19T08:48:27;28.70;99.90
7317;DHT22;3699;51.462;6.696;2022-08-19T08:50:59;28.90;99.90
7317;DHT22;3699;51.462;6.696;2022-08-19T08:53:28;28.90;99.90
7317;DHT22;3699;51.462;6.696;2022-08-19T08:55:56;28.90;99.90
7317;DHT22;3699;51.462;6.696;2022-08-19T08:58:27;28.90;99.90
7317;DHT22;3699;51.462;6.696;2022-08-19T09:00:57;29.00;99.90
7317;DHT22;3699;51.462;6.696;2022-08-19T09:03:26;29.10;99.80
7317;DHT22;3699;51.462;6.696;2022-08-19T09:05:59;29.10;98.70
7317;DHT22;3699;51.462;6.696;2022-08-19T09:08:36;29.30;99.90
7317;DHT22;3699;51.462;6.696;2022-08-19T09:11:08;29.30;99.70
7317;DHT22;3699;51.462;6.696;2022-08-19T09:16:25;29.40;95.70
7317;DHT22;3699;51.462;6.696;2022-08-19T09:18:55;29.50;96.40
7317;DHT22;3699;51.462;6.696;2022-08-19T09:21:23;29.60;98.20
7317;DHT22;3699;51.462;6.696;2022-08-19T09:23:50;29.70;96.00
7317;DHT22;3699;51.462;6.696;2022-08-19T09:26:19;29.80;93.80
7317;DHT22;3699;51.462;6.696;2022-08-19T09:28:47;29.70;93.90
7317;DHT22;3699;51.462;6.696;2022-08-19T09:31:17;29.70;93.00
7317;DHT22;3699;51.462;6.696;2022-08-19T09:33:46;29.70;92.80
7317;DHT22;3699;51.462;6.696;2022-08-19T09:36:16;29.70;92.50
7317;DHT22;3699;51.462;6.696;2022-08-19T09:38:44;29.40;89.10
7317;DHT22;3699;51.462;6.696;2022-08-19T09:41:13;29.30;93.60
7317;DHT22;3699;51.462;6.696;2022-08-19T09:43:41;29.10;92.40
7317;DHT22;3699;51.462;6.696;2022-08-19T09:46:08;29.10;92.50
7317;DHT22;3699;51.462;6.696;2022-08-19T09:48:35;29.10;93.80
7317;DHT22;3699;51.462;6.696;2022-08-19T09:51:05;29.20;96.60
7317;DHT22;3699;51.462;6.696;2022-08-19T09:53:33;29.20;93.30
7317;DHT22;3699;51.462;6.696;2022-08-19T09:56:01;29.20;94.50
7317;DHT22;3699;51.462;6.696;2022-08-19T09:58:28;29.30;94.00
7317;DHT22;3699;51.462;6.696;2022-08-19T10:00:56;29.40;95.00
7317;DHT22;3699;51.462;6.696;2022-08-19T10:03:24;29.50;93.10
7317;DHT22;3699;51.462;6.696;2022-08-19T10:05:51;29.60;88.50
7317;DHT22;3699;51.462;6.696;2022-08-19T10:08:22;29.60;91.70
7317;DHT22;3699;51.462;6.696;2022-08-19T10:10:49;29.80;91.90
7317;DHT22;3699;51.462;6.696;2022-08-19T10:13:18;29.70;91.80
7317;DHT22;3699;51.462;6.696;2022-08-19T10:15:47;29.70;91.70
7317;DHT22;3699;51.462;6.696;2022-08-19T10:18:17;29.80;91.50
7317;DHT22;3699;51.462;6.696;2022-08-19T10:20:44;29.70;89.10
7317;DHT22;3699;51.462;6.696;2022-08-19T10:23:11;29.60;90.30
7317;DHT22;3699;51.462;6.696;2022-08-19T10:25:39;29.30;90.50
7317;DHT22;3699;51.462;6.696;2022-08-19T10:28:07;29.20;91.10
7317;DHT22;3699;51.462;6.696;2022-08-19T10:30:35;29.30;90.70
7317;DHT22;3699;51.462;6.696;2022-08-19T10:33:02;29.30;89.70
7317;DHT22;3699;51.462;6.696;2022-08-19T10:35:29;29.20;90.00
7317;DHT22;3699;51.462;6.696;2022-08-19T10:37:55;29.20;90.10
7317;DHT22;3699;51.462;6.696;2022-08-19T10:40:25;29.40;88.70
7317;DHT22;3699;51.462;6.696;2022-08-19T10:42:53;29.50;88.80
7317;DHT22;3699;51.462;6.696;2022-08-19T10:45:20;29.40;87.10
7317;DHT22;3699;51.462;6.696;2022-08-19T10:47:51;29.30;87.50
7317;DHT22;3699;51.462;6.696;2022-08-19T10:50:18;29.20;87.70
7317;DHT22;3699;51.462;6.696;2022-08-19T10:53:05;29.20;88.20
7317;DHT22;3699;51.462;6.696;2022-08-19T10:55:34;29.00;85.60
7317;DHT22;3699;51.462;6.696;2022-08-19T10:58:21;29.00;88.40
7317;DHT22;3699;51.462;6.696;2022-08-19T11:00:54;29.00;86.70
7317;DHT22;3699;51.462;6.696;2022-08-19T11:03:22;29.30;85.30
7317;DHT22;3699;51.462;6.696;2022-08-19T11:05:57;29.30;85.20
7317;DHT22;3699;51.462;6.696;2022-08-19T11:08:24;29.50;85.30
7317;DHT22;3699;51.462;6.696;2022-08-19T11:10:52;29.70;85.90
7317;DHT22;3699;51.462;6.696;2022-08-19T11:13:22;29.90;83.30
7317;DHT22;3699;51.462;6.696;2022-08-19T11:15:57;30.20;80.20
7317;DHT22;3699;51.462;6.696;2022-08-19T11:18:24;30.30;78.80
7317;DHT22;3699;51.462;6.696;2022-08-19T11:20:51;30.20;76.10
7317;DHT22;3699;51.462;6.696;2022-08-19T11:23:18;30.20;75.20
7317;DHT22;3699;51.462;6.696;2022-08-19T11:25:45;30.10;73.10
7317;DHT22;3699;51.462;6.696;2022-08-19T11:28:11;30.00;73.40
7317;DHT22;3699;51.462;6.696;2022-08-19T11:30:39;29.80;73.50
7317;DHT22;3699;51.462;6.696;2022-08-19T11:33:06;29.80;75.30
7317;DHT22;3699;51.462;6.696;2022-08-19T11:35:33;29.80;76.00
7317;DHT22;3699;51.462;6.696;2022-08-19T11:38:00;29.70;74.40
7317;DHT22;3699;51.462;6.696;2022-08-19T11:40:28;29.50;72.70
7317;DHT22;3699;51.462;6.696;2022-08-19T11:42:54;29.40;73.80
7317;DHT22;3699;51.462;6.696;2022-08-19T11:45:22;29.40;75.40
7317;DHT22;3699;51.462;6.696;2022-08-19T11:47:50;29.50;75.30
7317;DHT22;3699;51.462;6.696;2022-08-19T11:50:17;29.70;75.10
7317;DHT22;3699;51.462;6.696;2022-08-19T11:52:44;29.90;73.90
7317;DHT22;3699;51.462;6.696;2022-08-19T11:55:12;30.00;73.80
7317;DHT22;3699;51.462;6.696;2022-08-19T11:57:39;30.00;73.00
7317;DHT22;3699;51.462;6.696;2022-08-19T12:00:07;30.00;74.40
7317;DHT22;3699;51.462;6.696;2022-08-19T12:02:35;30.00;70.50
7317;DHT22;3699;51.462;6.696;2022-08-19T12:05:04;29.90;69.10
7317;DHT22;3699;51.462;6.696;2022-08-19T12:07:32;30.00;70.00
7317;DHT22;3699;51.462;6.696;2022-08-19T12:09:59;30.10;71.40
7317;DHT22;3699;51.462;6.696;2022-08-19T12:12:26;30.20;71.30
7317;DHT22;3699;51.462;6.696;2022-08-19T12:14:54;30.40;69.30
7317;DHT22;3699;51.462;6.696;2022-08-19T12:17:23;30.30;66.30
7317;DHT22;3699;51.462;6.696;2022-08-19T12:19:51;30.30;68.20
7317;DHT22;3699;51.462;6.696;2022-08-19T12:22:19;30.30;62.60
7317;DHT22;3699;51.462;6.696;2022-08-19T12:24:47;30.20;64.20
7317;DHT22;3699;51.462;6.696;2022-08-19T12:27:16;30.30;66.20
7317;DHT22;3699;51.462;6.696;2022-08-19T12:29:43;30.30;64.10
7317;DHT22;3699;51.462;6.696;2022-08-19T12:32:09;30.30;62.90
7317;DHT22;3699;51.462;6.696;2022-08-19T12:34:36;30.40;63.10
7317;DHT22;3699;51.462;6.696;2022-08-19T12:37:05;30.50;63.20
7317;DHT22;3699;51.462;6.696;2022-08-19T12:39:37;30.60;62.80
7317;DHT22;3699;51.462;6.696;2022-08-19T12:42:04;30.70;59.90
7317;DHT22;3699;51.462;6.696;2022-08-19T12:44:32;30.70;61.00
7317;DHT22;3699;51.462;6.696;2022-08-19T12:46:59;30.60;59.60
7317;DHT22;3699;51.462;6.696;2022-08-19T12:49:30;30.60;61.10
7317;DHT22;3699;51.462;6.696;2022-08-19T12:51:59;30.60;59.60
7317;DHT22;3699;51.462;6.696;2022-08-19T12:54:26;30.60;58.40
7317;DHT22;3699;51.462;6.696;2022-08-19T12:56:54;30.60;59.70
7317;DHT22;3699;51.462;6.696;2022-08-19T12:59:21;30.70;58.90
7317;DHT22;3699;51.462;6.696;2022-08-19T13:01:48;30.60;59.80
7317;DHT22;3699;51.462;6.696;2022-08-19T13:04:15;30.40;58.90
7317;DHT22;3699;51.462;6.696;2022-08-19T13:06:42;30.40;57.10
7317;DHT22;3699;51.462;6.696;2022-08-19T13:09:09;30.30;59.20
7317;DHT22;3699;51.462;6.696;2022-08-19T13:11:37;30.30;59.30
7317;DHT22;3699;51.462;6.696;2022-08-19T13:14:05;30.30;60.40
7317;DHT22;3699;51.462;6.696;2022-08-19T13:16:32;30.40;60.00
7317;DHT22;3699;51.462;6.696;2022-08-19T13:18:59;30.40;58.30
7317;DHT22;3699;51.462;6.696;2022-08-19T13:21:28;30.40;58.50
7317;DHT22;3699;51.462;6.696;2022-08-19T13:23:55;30.40;59.00
7317;DHT22;3699;51.462;6.696;2022-08-19T13:26:22;30.40;58.40
7317;DHT22;3699;51.462;6.696;2022-08-19T13:28:49;30.40;57.40
7317;DHT22;3699;51.462;6.696;2022-08-19T13:31:39;30.40;58.00
7317;DHT22;3699;51.462;6.696;2022-08-19T13:34:27;30.50;58.40
7317;DHT22;3699;51.462;6.696;2022-08-19T13:36:55;30.30;57.40
7317;DHT22;3699;51.462;6.696;2022-08-19T13:39:21;30.30;58.00
7317;DHT22;3699;51.462;6.696;2022-08-19T13:41:49;30.40;57.50
7317;DHT22;3699;51.462;6.696;2022-08-19T13:44:16;30.30;56.60
7317;DHT22;3699;51.462;6.696;2022-08-19T13:46:46;30.20;56.90
7317;DHT22;3699;51.462;6.696;2022-08-19T13:49:14;30.20;56.90
7317;DHT22;3699;51.462;6.696;2022-08-19T13:51:42;30.20;58.30
7317;DHT22;3699;51.462;6.696;2022-08-19T13:54:10;30.10;58.20
7317;DHT22;3699;51.462;6.696;2022-08-19T13:56:40;30.10;58.30
7317;DHT22;3699;51.462;6.696;2022-08-19T13:59:07;30.00;58.20
7317;DHT22;3699;51.462;6.696;2022-08-19T14:01:34;30.10;57.40
7317;DHT22;3699;51.462;6.696;2022-08-19T14:04:02;30.10;58.80
7317;DHT22;3699;51.462;6.696;2022-08-19T14:06:29;30.20;60.00
7317;DHT22;3699;51.462;6.696;2022-08-19T14:08:56;30.10;60.70
7317;DHT22;3699;51.462;6.696;2022-08-19T14:11:23;30.20;61.80
7317;DHT22;3699;51.462;6.696;2022-08-19T14:13:50;30.20;60.60
7317;DHT22;3699;51.462;6.696;2022-08-19T14:16:17;30.20;60.60
7317;DHT22;3699;51.462;6.696;2022-08-19T14:18:44;30.10;60.60
7317;DHT22;3699;51.462;6.696;2022-08-19T14:21:17;29.90;61.10
7317;DHT22;3699;51.462;6.696;2022-08-19T14:23:45;29.90;60.20
7317;DHT22;3699;51.462;6.696;2022-08-19T14:26:15;29.80;61.70
7317;DHT22;3699;51.462;6.696;2022-08-19T14:28:42;29.80;60.80
7317;DHT22;3699;51.462;6.696;2022-08-19T14:31:10;29.70;58.10
7317;DHT22;3699;51.462;6.696;2022-08-19T14:33:37;29.70;59.10
7317;DHT22;3699;51.462;6.696;2022-08-19T14:36:06;29.70;57.30
7317;DHT22;3699;51.462;6.696;2022-08-19T14:38:34;29.60;58.50
7317;DHT22;3699;51.462;6.696;2022-08-19T14:41:13;29.70;57.80
7317;DHT22;3699;51.462;6.696;2022-08-19T14:43:41;29.60;56.30
7317;DHT22;3699;51.462;6.696;2022-08-19T14:46:11;29.50;55.80
7317;DHT22;3699;51.462;6.696;2022-08-19T14:48:38;29.40;54.60
7317;DHT22;3699;51.462;6.696;2022-08-19T14:51:05;29.40;54.10
7317;DHT22;3699;51.462;6.696;2022-08-19T14:53:33;29.40;55.00
7317;DHT22;3699;51.462;6.696;2022-08-19T14:56:01;29.30;56.00
7317;DHT22;3699;51.462;6.696;2022-08-19T14:58:28;29.20;56.00
7317;DHT22;3699;51.462;6.696;2022-08-19T15:00:54;29.10;56.00
7317;DHT22;3699;51.462;6.696;2022-08-19T15:03:21;29.00;56.40
7317;DHT22;3699;51.462;6.696;2022-08-19T15:05:48;29.10;57.00
7317;DHT22;3699;51.462;6.696;2022-08-19T15:08:15;29.00;57.90
7317;DHT22;3699;51.462;6.696;2022-08-19T15:10:44;28.90;58.40
7317;DHT22;3699;51.462;6.696;2022-08-19T15:13:11;28.90;58.10
7317;DHT22;3699;51.462;6.696;2022-08-19T15:15:37;28.80;58.00
7317;DHT22;3699;51.462;6.696;2022-08-19T15:18:05;28.90;56.70
7317;DHT22;3699;51.462;6.696;2022-08-19T15:20:31;28.80;58.50
7317;DHT22;3699;51.462;6.696;2022-08-19T15:22:58;28.70;57.90
7317;DHT22;3699;51.462;6.696;2022-08-19T15:25:26;28.80;58.90
7317;DHT22;3699;51.462;6.696;2022-08-19T15:27:55;28.70;59.20
7317;DHT22;3699;51.462;6.696;2022-08-19T15:30:23;28.60;60.20
7317;DHT22;3699;51.462;6.696;2022-08-19T15:32:51;28.60;59.50
7317;DHT22;3699;51.462;6.696;2022-08-19T15:35:21;28.60;58.60
7317;DHT22;3699;51.462;6.696;2022-08-19T15:37:48;28.50;60.00
7317;DHT22;3699;51.462;6.696;2022-08-19T15:40:15;28.50;60.70
7317;DHT22;3699;51.462;6.696;2022-08-19T15:42:42;28.50;60.20
7317;DHT22;3699;51.462;6.696;2022-08-19T15:45:12;28.50;61.00
7317;DHT22;3699;51.462;6.696;2022-08-19T15:47:40;28.50;59.90
7317;DHT22;3699;51.462;6.696;2022-08-19T15:50:08;28.50;61.30
7317;DHT22;3699;51.462;6.696;2022-08-19T15:52:35;28.60;61.40
7317;DHT22;3699;51.462;6.696;2022-08-19T15:55:04;28.60;62.60
7317;DHT22;3699;51.462;6.696;2022-08-19T15:57:31;28.60;60.40
7317;DHT22;3699;51.462;6.696;2022-08-19T16:00:16;28.60;61.60
7317;DHT22;3699;51.462;6.696;2022-08-19T16:03:01;28.60;62.20
7317;DHT22;3699;51.462;6.696;2022-08-19T16:05:45;28.70;63.90
7317;DHT22;3699;51.462;6.696;2022-08-19T16:08:29;28.60;64.20
7317;DHT22;3699;51.462;6.696;2022-08-19T16:10:56;28.70;64.10
7317;DHT22;3699;51.462;6.696;2022-08-19T16:13:22;28.60;65.00
7317;DHT22;3699;51.462;6.696;2022-08-19T16:15:50;28.70;66.10